AFR75MT LFPG-LFRS
Flight info
| Callsign | AFR75MT |
|---|---|
| Flight time | 0h 42m |
| Altitude | 27000 |
| Route | LGL UT176 ROLEN UZ15 ARDOD A5 VALAX |
| Aircraft | A321/M-SDE3FGHIRWY/LB1 |
Departure
| Time | 2026-04-30 19:48 |
|---|---|
| Airport | Charles de Gaulle International Airport (LFPG) |
Arrival
| Time | 2026-04-30 20:30 |
|---|---|
| Airport | Nantes Atlantique Airport (LFRS) |
| Time | Latitude | Longitude | Altitude | Speed | Heading |
|---|---|---|---|---|---|
| 2026-04-30 19:19 | 49.00652 | 2.57306 | 355 ft | 0 kts | 99° |
| 2026-04-30 19:36 | 49.00653 | 2.57298 | 354 ft | 4 kts | 96° |
| 2026-04-30 19:37 | 49.00651 | 2.57260 | 357 ft | 4 kts | 57° |
| 2026-04-30 19:37 | 49.00633 | 2.57238 | 361 ft | 4 kts | 4° |
| 2026-04-30 19:37 | 49.00625 | 2.57238 | 358 ft | 0 kts | 354° |
| 2026-04-30 19:40 | 49.00627 | 2.57237 | 354 ft | 2 kts | 354° |
| 2026-04-30 19:40 | 49.00672 | 2.57205 | 364 ft | 10 kts | 309° |
| 2026-04-30 19:40 | 49.00672 | 2.57107 | 357 ft | 9 kts | 258° |
| 2026-04-30 19:41 | 49.00656 | 2.56972 | 354 ft | 17 kts | 265° |
| 2026-04-30 19:41 | 49.00645 | 2.56789 | 354 ft | 17 kts | 265° |
| 2026-04-30 19:41 | 49.00635 | 2.56621 | 362 ft | 15 kts | 265° |
| 2026-04-30 19:41 | 49.00627 | 2.56465 | 354 ft | 14 kts | 265° |
| 2026-04-30 19:42 | 49.00620 | 2.56322 | 359 ft | 13 kts | 265° |
| 2026-04-30 19:42 | 49.00612 | 2.56186 | 354 ft | 13 kts | 265° |
| 2026-04-30 19:42 | 49.00597 | 2.56057 | 354 ft | 12 kts | 252° |
| 2026-04-30 19:42 | 49.00573 | 2.55935 | 358 ft | 11 kts | 264° |
| 2026-04-30 19:43 | 49.00567 | 2.55817 | 359 ft | 11 kts | 265° |
| 2026-04-30 19:43 | 49.00561 | 2.55707 | 359 ft | 10 kts | 265° |
| 2026-04-30 19:43 | 49.00555 | 2.55598 | 354 ft | 10 kts | 265° |
| 2026-04-30 19:44 | 49.00532 | 2.55390 | 362 ft | 10 kts | 236° |
| 2026-04-30 19:44 | 49.00447 | 2.55332 | 354 ft | 16 kts | 174° |
| 2026-04-30 19:44 | 49.00341 | 2.55374 | 359 ft | 15 kts | 164° |
| 2026-04-30 19:44 | 49.00240 | 2.55418 | 357 ft | 15 kts | 164° |
| 2026-04-30 19:45 | 49.00143 | 2.55462 | 354 ft | 14 kts | 163° |
| 2026-04-30 19:45 | 49.00050 | 2.55503 | 356 ft | 14 kts | 165° |
| 2026-04-30 19:45 | 48.99960 | 2.55540 | 355 ft | 13 kts | 164° |
| 2026-04-30 19:45 | 48.99883 | 2.55603 | 364 ft | 12 kts | 135° |
| 2026-04-30 19:46 | 48.99837 | 2.55722 | 357 ft | 13 kts | 107° |
| 2026-04-30 19:46 | 48.99788 | 2.55801 | 360 ft | 10 kts | 170° |
| 2026-04-30 19:46 | 48.99721 | 2.55812 | 354 ft | 9 kts | 175° |
| 2026-04-30 19:46 | 48.99654 | 2.55819 | 354 ft | 10 kts | 176° |
| 2026-04-30 19:47 | 48.99604 | 2.55879 | 356 ft | 11 kts | 98° |
| 2026-04-30 19:47 | 48.99606 | 2.55957 | 354 ft | 11 kts | 86° |
| 2026-04-30 19:47 | 48.99629 | 2.56380 | 363 ft | 69 kts | 84° |
| 2026-04-30 19:47 | 48.99685 | 2.57430 | 351 ft | 127 kts | 85° |
| 2026-04-30 19:48 | 48.99773 | 2.58996 | 419 ft | 163 kts | 84° |
| 2026-04-30 19:48 | 48.99839 | 2.60102 | 908 ft | 155 kts | 85° |
| 2026-04-30 19:48 | 48.99927 | 2.61737 | 1585 ft | 154 kts | 87° |
| 2026-04-30 19:48 | 49.00010 | 2.63362 | 2226 ft | 154 kts | 90° |
| 2026-04-30 19:49 | 49.00093 | 2.64986 | 2827 ft | 154 kts | 90° |
| 2026-04-30 19:49 | 49.00265 | 2.68326 | 3754 ft | 172 kts | 90° |
| 2026-04-30 19:49 | 49.00359 | 2.70259 | 3948 ft | 194 kts | 90° |
| 2026-04-30 19:50 | 49.00464 | 2.72421 | 4116 ft | 216 kts | 89° |
| 2026-04-30 19:50 | 49.00582 | 2.74828 | 4246 ft | 241 kts | 88° |
| 2026-04-30 19:50 | 49.00703 | 2.77500 | 4578 ft | 262 kts | 93° |
| 2026-04-30 19:50 | 49.00376 | 2.80261 | 5132 ft | 270 kts | 116° |
| 2026-04-30 19:51 | 48.99321 | 2.82597 | 5810 ft | 269 kts | 141° |
| 2026-04-30 19:51 | 48.97700 | 2.83988 | 6537 ft | 271 kts | 166° |
| 2026-04-30 19:51 | 48.95826 | 2.84110 | 7262 ft | 273 kts | 192° |
| 2026-04-30 19:51 | 48.94099 | 2.82926 | 7970 ft | 278 kts | 218° |
| 2026-04-30 19:52 | 48.92885 | 2.80633 | 8641 ft | 284 kts | 243° |
| 2026-04-30 19:52 | 48.92041 | 2.77889 | 9345 ft | 289 kts | 244° |
| 2026-04-30 19:52 | 48.91191 | 2.75101 | 10052 ft | 293 kts | 243° |
| 2026-04-30 19:52 | 48.90318 | 2.72250 | 10450 ft | 307 kts | 243° |
| 2026-04-30 19:53 | 48.89376 | 2.69193 | 10586 ft | 330 kts | 243° |
| 2026-04-30 19:53 | 48.88372 | 2.65948 | 10816 ft | 346 kts | 243° |
| 2026-04-30 19:53 | 48.87338 | 2.62607 | 11324 ft | 353 kts | 243° |
| 2026-04-30 19:53 | 48.86287 | 2.59216 | 11928 ft | 357 kts | 243° |
| 2026-04-30 19:54 | 48.85220 | 2.55789 | 12542 ft | 361 kts | 243° |
| 2026-04-30 19:54 | 48.84139 | 2.52329 | 13160 ft | 365 kts | 243° |
| 2026-04-30 19:54 | 48.83046 | 2.48830 | 13759 ft | 368 kts | 243° |
| 2026-04-30 19:54 | 48.81942 | 2.45305 | 14321 ft | 372 kts | 243° |
| 2026-04-30 19:55 | 48.80890 | 2.41699 | 14860 ft | 377 kts | 249° |
| 2026-04-30 19:55 | 48.80257 | 2.37875 | 15394 ft | 382 kts | 260° |
| 2026-04-30 19:55 | 48.80114 | 2.33784 | 15927 ft | 386 kts | 269° |
| 2026-04-30 19:55 | 48.80137 | 2.29690 | 16453 ft | 390 kts | 269° |
| 2026-04-30 19:56 | 48.80151 | 2.25618 | 16966 ft | 393 kts | 269° |
| 2026-04-30 19:56 | 48.80156 | 2.21457 | 17477 ft | 396 kts | 269° |
| 2026-04-30 19:56 | 48.80154 | 2.17260 | 17978 ft | 399 kts | 268° |
| 2026-04-30 19:56 | 48.79837 | 2.13110 | 18650 ft | 392 kts | 252° |
| 2026-04-30 19:57 | 48.78824 | 2.09315 | 19271 ft | 386 kts | 239° |
| 2026-04-30 19:57 | 48.77558 | 2.05713 | 19787 ft | 387 kts | 239° |
| 2026-04-30 19:57 | 48.76268 | 2.02123 | 20261 ft | 390 kts | 238° |
| 2026-04-30 19:57 | 48.74955 | 1.98515 | 20716 ft | 392 kts | 238° |
| 2026-04-30 19:58 | 48.73628 | 1.94890 | 21176 ft | 395 kts | 238° |
| 2026-04-30 19:58 | 48.72297 | 1.91244 | 21621 ft | 397 kts | 238° |
| 2026-04-30 19:58 | 48.70959 | 1.87567 | 22049 ft | 400 kts | 238° |
| 2026-04-30 19:58 | 48.69617 | 1.83867 | 22474 ft | 402 kts | 238° |
| 2026-04-30 19:59 | 48.68267 | 1.80145 | 22874 ft | 405 kts | 238° |
| 2026-04-30 19:59 | 48.66909 | 1.76408 | 23261 ft | 407 kts | 238° |
| 2026-04-30 19:59 | 48.64188 | 1.68936 | 23998 ft | 411 kts | 237° |
| 2026-04-30 20:00 | 48.62771 | 1.65056 | 24130 ft | 419 kts | 238° |
| 2026-04-30 20:00 | 48.61343 | 1.61167 | 24161 ft | 425 kts | 238° |
| 2026-04-30 20:00 | 48.59906 | 1.57255 | 24160 ft | 427 kts | 238° |
| 2026-04-30 20:00 | 48.58466 | 1.53326 | 24158 ft | 427 kts | 238° |
| 2026-04-30 20:01 | 48.55582 | 1.45481 | 24152 ft | 427 kts | 238° |
| 2026-04-30 20:01 | 48.54137 | 1.41563 | 24152 ft | 427 kts | 238° |
| 2026-04-30 20:01 | 48.52710 | 1.37701 | 24149 ft | 427 kts | 237° |
| 2026-04-30 20:02 | 48.49816 | 1.29887 | 24149 ft | 427 kts | 237° |
| 2026-04-30 20:02 | 48.48348 | 1.25936 | 24150 ft | 426 kts | 237° |
| 2026-04-30 20:03 | 48.45452 | 1.18160 | 24146 ft | 425 kts | 237° |
| 2026-04-30 20:03 | 48.44002 | 1.14278 | 24147 ft | 425 kts | 237° |
| 2026-04-30 20:03 | 48.42551 | 1.10399 | 24150 ft | 425 kts | 237° |
| 2026-04-30 20:03 | 48.41120 | 1.06570 | 24146 ft | 425 kts | 237° |
| 2026-04-30 20:04 | 48.39651 | 1.02640 | 24151 ft | 425 kts | 237° |
| 2026-04-30 20:04 | 48.38219 | 0.98814 | 24147 ft | 425 kts | 237° |
| 2026-04-30 20:04 | 48.36769 | 0.94940 | 24148 ft | 425 kts | 237° |
| 2026-04-30 20:05 | 48.33859 | 0.87200 | 24144 ft | 425 kts | 237° |
| 2026-04-30 20:05 | 48.32401 | 0.83338 | 24149 ft | 424 kts | 238° |
| 2026-04-30 20:05 | 48.29490 | 0.75654 | 24144 ft | 423 kts | 238° |
| 2026-04-30 20:06 | 48.28033 | 0.71813 | 24145 ft | 423 kts | 238° |
| 2026-04-30 20:06 | 48.26576 | 0.67974 | 24142 ft | 423 kts | 238° |
| 2026-04-30 20:06 | 48.25117 | 0.64137 | 24142 ft | 423 kts | 238° |
| 2026-04-30 20:06 | 48.23655 | 0.60305 | 24142 ft | 423 kts | 238° |
| 2026-04-30 20:07 | 48.22191 | 0.56474 | 24149 ft | 423 kts | 238° |
| 2026-04-30 20:07 | 48.20729 | 0.52649 | 24142 ft | 422 kts | 238° |
| 2026-04-30 20:07 | 48.17812 | 0.45010 | 24148 ft | 422 kts | 238° |
| 2026-04-30 20:08 | 48.16352 | 0.41194 | 24151 ft | 422 kts | 238° |
| 2026-04-30 20:08 | 48.14889 | 0.37382 | 24152 ft | 422 kts | 238° |
| 2026-04-30 20:08 | 48.13411 | 0.33587 | 24154 ft | 422 kts | 237° |
| 2026-04-30 20:08 | 48.11883 | 0.29840 | 24157 ft | 422 kts | 236° |
| 2026-04-30 20:09 | 48.10319 | 0.26137 | 24156 ft | 417 kts | 236° |
| 2026-04-30 20:09 | 48.08783 | 0.22557 | 23988 ft | 402 kts | 235° |
| 2026-04-30 20:09 | 48.05777 | 0.15587 | 23495 ft | 397 kts | 235° |
| 2026-04-30 20:10 | 48.02815 | 0.08659 | 22953 ft | 394 kts | 236° |
| 2026-04-30 20:10 | 48.01353 | 0.05210 | 22687 ft | 392 kts | 236° |
| 2026-04-30 20:10 | 47.99899 | 0.01774 | 22420 ft | 390 kts | 236° |
| 2026-04-30 20:11 | 47.97001 | -0.05048 | 21886 ft | 387 kts | 236° |
| 2026-04-30 20:11 | 47.95560 | -0.08425 | 21624 ft | 385 kts | 235° |
| 2026-04-30 20:11 | 47.94125 | -0.11785 | 21366 ft | 383 kts | 235° |
| 2026-04-30 20:12 | 47.91278 | -0.18454 | 20862 ft | 380 kts | 235° |
| 2026-04-30 20:12 | 47.89860 | -0.21764 | 20616 ft | 378 kts | 235° |
| 2026-04-30 20:12 | 47.88444 | -0.25059 | 20366 ft | 376 kts | 235° |
| 2026-04-30 20:13 | 47.87033 | -0.28335 | 20123 ft | 375 kts | 235° |
| 2026-04-30 20:13 | 47.85628 | -0.31597 | 19880 ft | 373 kts | 235° |
| 2026-04-30 20:13 | 47.84231 | -0.34844 | 19638 ft | 372 kts | 235° |
| 2026-04-30 20:13 | 47.82841 | -0.38071 | 19391 ft | 367 kts | 235° |
| 2026-04-30 20:14 | 47.81477 | -0.41237 | 18990 ft | 361 kts | 235° |
| 2026-04-30 20:14 | 47.80127 | -0.44358 | 18562 ft | 357 kts | 235° |
| 2026-04-30 20:14 | 47.78790 | -0.47446 | 18070 ft | 353 kts | 235° |
| 2026-04-30 20:14 | 47.77470 | -0.50491 | 17629 ft | 348 kts | 235° |
| 2026-04-30 20:15 | 47.76167 | -0.53493 | 17197 ft | 343 kts | 234° |
| 2026-04-30 20:15 | 47.74885 | -0.56443 | 16790 ft | 338 kts | 234° |
| 2026-04-30 20:15 | 47.73617 | -0.59360 | 16384 ft | 334 kts | 234° |
| 2026-04-30 20:15 | 47.72365 | -0.62241 | 15972 ft | 330 kts | 234° |
| 2026-04-30 20:16 | 47.71126 | -0.65084 | 15574 ft | 326 kts | 234° |
| 2026-04-30 20:16 | 47.69897 | -0.67901 | 15168 ft | 324 kts | 234° |
| 2026-04-30 20:16 | 47.68677 | -0.70699 | 14770 ft | 322 kts | 234° |
| 2026-04-30 20:16 | 47.67462 | -0.73482 | 14386 ft | 320 kts | 234° |
| 2026-04-30 20:17 | 47.66251 | -0.76248 | 13980 ft | 319 kts | 234° |
| 2026-04-30 20:17 | 47.65045 | -0.78997 | 13549 ft | 317 kts | 234° |
| 2026-04-30 20:17 | 47.63846 | -0.81726 | 13140 ft | 315 kts | 234° |
| 2026-04-30 20:17 | 47.62670 | -0.84405 | 12738 ft | 313 kts | 234° |
| 2026-04-30 20:18 | 47.61485 | -0.87101 | 12346 ft | 311 kts | 233° |
| 2026-04-30 20:18 | 47.60309 | -0.89772 | 11941 ft | 309 kts | 233° |
| 2026-04-30 20:18 | 47.59136 | -0.92437 | 11540 ft | 307 kts | 233° |
| 2026-04-30 20:18 | 47.57971 | -0.95080 | 11135 ft | 306 kts | 234° |
| 2026-04-30 20:19 | 47.56813 | -0.97708 | 10738 ft | 304 kts | 233° |
| 2026-04-30 20:19 | 47.56035 | -0.99472 | 10499 ft | 301 kts | 233° |
| 2026-04-30 20:19 | 47.54540 | -1.02862 | 10131 ft | 293 kts | 233° |
| 2026-04-30 20:19 | 47.53430 | -1.05374 | 9977 ft | 291 kts | 233° |
| 2026-04-30 20:20 | 47.52322 | -1.07877 | 9850 ft | 290 kts | 233° |
| 2026-04-30 20:20 | 47.51214 | -1.10371 | 9684 ft | 290 kts | 233° |
| 2026-04-30 20:20 | 47.50105 | -1.12865 | 9238 ft | 290 kts | 233° |
| 2026-04-30 20:20 | 47.49001 | -1.15346 | 8826 ft | 287 kts | 234° |
| 2026-04-30 20:21 | 47.47908 | -1.17802 | 8459 ft | 284 kts | 234° |
| 2026-04-30 20:21 | 47.46825 | -1.20231 | 8091 ft | 282 kts | 234° |
| 2026-04-30 20:21 | 47.45751 | -1.22644 | 7721 ft | 280 kts | 234° |
| 2026-04-30 20:21 | 47.44689 | -1.25034 | 7362 ft | 276 kts | 234° |
| 2026-04-30 20:22 | 47.43483 | -1.27189 | 6997 ft | 270 kts | 220° |
| 2026-04-30 20:22 | 47.42070 | -1.28975 | 6644 ft | 265 kts | 218° |
| 2026-04-30 20:22 | 47.40688 | -1.30712 | 6288 ft | 256 kts | 218° |
| 2026-04-30 20:22 | 47.39363 | -1.32381 | 5951 ft | 245 kts | 218° |
| 2026-04-30 20:23 | 47.38104 | -1.33967 | 5657 ft | 231 kts | 219° |
| 2026-04-30 20:23 | 47.36913 | -1.35467 | 5340 ft | 220 kts | 219° |
| 2026-04-30 20:23 | 47.35765 | -1.36908 | 5055 ft | 214 kts | 219° |
| 2026-04-30 20:23 | 47.34656 | -1.38301 | 4796 ft | 204 kts | 219° |
| 2026-04-30 20:24 | 47.33601 | -1.39626 | 4515 ft | 195 kts | 219° |
| 2026-04-30 20:24 | 47.32592 | -1.40896 | 4257 ft | 187 kts | 219° |
| 2026-04-30 20:24 | 47.31625 | -1.42120 | 4009 ft | 178 kts | 219° |
| 2026-04-30 20:24 | 47.30719 | -1.43273 | 3789 ft | 167 kts | 219° |
| 2026-04-30 20:25 | 47.29092 | -1.45339 | 3387 ft | 143 kts | 219° |
| 2026-04-30 20:25 | 47.28343 | -1.46286 | 3195 ft | 141 kts | 219° |
| 2026-04-30 20:26 | 47.26865 | -1.48154 | 2825 ft | 139 kts | 219° |
| 2026-04-30 20:26 | 47.25404 | -1.50001 | 2436 ft | 138 kts | 218° |
| 2026-04-30 20:26 | 47.24675 | -1.50923 | 2247 ft | 138 kts | 218° |
| 2026-04-30 20:27 | 47.23223 | -1.52753 | 1875 ft | 137 kts | 219° |
| 2026-04-30 20:27 | 47.21784 | -1.54575 | 1500 ft | 137 kts | 219° |
| 2026-04-30 20:28 | 47.20339 | -1.56414 | 1093 ft | 137 kts | 219° |
| 2026-04-30 20:28 | 47.18890 | -1.58223 | 731 ft | 137 kts | 219° |
| 2026-04-30 20:29 | 47.17246 | -1.59618 | 318 ft | 138 kts | 210° |
| 2026-04-30 20:30 | 47.15023 | -1.61298 | 91 ft | 66 kts | 207° |
| 2026-04-30 20:30 | 47.14328 | -1.61827 | 89 ft | 27 kts | 207° |
| 2026-04-30 20:31 | 47.14177 | -1.61680 | 87 ft | 13 kts | 50° |
| 2026-04-30 20:32 | 47.14482 | -1.61440 | 90 ft | 29 kts | 27° |
| 2026-04-30 20:32 | 47.14843 | -1.61165 | 91 ft | 29 kts | 27° |
| 2026-04-30 20:33 | 47.15023 | -1.61029 | 91 ft | 29 kts | 27° |
| 2026-04-30 20:33 | 47.15370 | -1.60765 | 94 ft | 27 kts | 27° |
| 2026-04-30 20:33 | 47.15507 | -1.60660 | 92 ft | 15 kts | 27° |
| 2026-04-30 20:34 | 47.15660 | -1.60543 | 91 ft | 15 kts | 27° |
| 2026-04-30 20:34 | 47.15707 | -1.60410 | 91 ft | 7 kts | 129° |
| 2026-04-30 20:35 | 47.15675 | -1.60363 | 90 ft | 6 kts | 136° |
| 2026-04-30 20:35 | 47.15676 | -1.60322 | 90 ft | 4 kts | 47° |
| 2026-04-30 20:35 | 47.15704 | -1.60282 | 90 ft | 2 kts | 44° |
| 2026-04-30 20:36 | 47.15712 | -1.60270 | 91 ft | 1 kts | 44° |
| 2026-04-30 20:36 | 47.15715 | -1.60266 | 91 ft | 0 kts | 44° |